Airport View

Enter AWOS ICAO identifier for current METAR.

ex. KFNL

KWWR 221815Z AUTO 03009G17KT 10SM SCT045 27/14 A3027 RMK AO2

22 Jul 2019 18:37

Frequency: 118.425

Phone: 580-254-5217

Other Area AWOS: KGAG - KAVK - KHHF - KPYX

TAF KWWR 221720Z 2218/2318 02012G16KT P6SM SCT025 FM222300 06010KT P6SM SCT250